sensor_id;sensor_type;location;lat;lon;timestamp;pressure;altitude;pressure_sealevel;temperature;humidity
51297;BME280;37380;45.186;9.792;2023-01-25T00:02:06;102441.84;;;5.19;100.00
51297;BME280;37380;45.186;9.792;2023-01-25T00:04:34;102358.97;;;4.58;100.00
51297;BME280;37380;45.186;9.792;2023-01-25T00:07:07;102245.72;;;3.94;100.00
51297;BME280;37380;45.186;9.792;2023-01-25T00:10:09;102369.22;;;4.66;100.00
51297;BME280;37380;45.186;9.792;2023-01-25T00:13:09;102319.72;;;4.32;100.00
51297;BME280;37380;45.186;9.792;2023-01-25T00:16:04;102433.81;;;5.06;100.00
51297;BME280;37380;45.186;9.792;2023-01-25T00:18:32;102421.41;;;5.02;100.00
51297;BME280;37380;45.186;9.792;2023-01-25T00:21:20;102437.59;;;4.99;100.00
51297;BME280;37380;45.186;9.792;2023-01-25T00:24:22;102368.16;;;4.64;100.00
51297;BME280;37380;45.186;9.792;2023-01-25T00:27:23;102423.47;;;5.06;100.00
51297;BME280;37380;45.186;9.792;2023-01-25T00:30:17;102360.41;;;4.64;100.00
51297;BME280;37380;45.186;9.792;2023-01-25T00:35:44;102428.25;;;5.11;100.00
51297;BME280;37380;45.186;9.792;2023-01-25T00:38:28;102424.38;;;5.06;100.00
51297;BME280;37380;45.186;9.792;2023-01-25T00:40:56;102287.91;;;4.23;100.00
51297;BME280;37380;45.186;9.792;2023-01-25T00:43:24;102313.53;;;4.41;100.00
51297;BME280;37380;45.186;9.792;2023-01-25T00:45:59;102411.41;;;4.96;100.00
51297;BME280;37380;45.186;9.792;2023-01-25T00:48:26;102425.53;;;4.99;100.00
51297;BME280;37380;45.186;9.792;2023-01-25T00:50:53;102377.47;;;4.62;100.00
51297;BME280;37380;45.186;9.792;2023-01-25T00:53:20;102359.09;;;4.59;100.00
51297;BME280;37380;45.186;9.792;2023-01-25T00:55:51;102242.59;;;3.98;100.00
51297;BME280;37380;45.186;9.792;2023-01-25T00:58:18;102313.94;;;4.25;100.00
51297;BME280;37380;45.186;9.792;2023-01-25T01:00:53;102283.00;;;4.16;100.00
51297;BME280;37380;45.186;9.792;2023-01-25T01:03:56;102298.50;;;4.26;100.00
51297;BME280;37380;45.186;9.792;2023-01-25T01:07:20;102344.31;;;4.48;100.00
51297;BME280;37380;45.186;9.792;2023-01-25T01:09:48;102226.31;;;3.89;100.00
51297;BME280;37380;45.186;9.792;2023-01-25T01:12:21;102372.03;;;4.59;100.00
51297;BME280;37380;45.186;9.792;2023-01-25T01:15:23;102219.56;;;3.80;100.00
51297;BME280;37380;45.186;9.792;2023-01-25T01:18:17;102349.66;;;4.60;100.00
51297;BME280;37380;45.186;9.792;2023-01-25T01:20:51;102413.09;;;4.85;100.00
51297;BME280;37380;45.186;9.792;2023-01-25T01:23:53;102398.06;;;4.91;100.00
51297;BME280;37380;45.186;9.792;2023-01-25T01:26:48;102362.72;;;4.61;100.00
51297;BME280;37380;45.186;9.792;2023-01-25T01:29:15;102403.66;;;4.75;100.00
51297;BME280;37380;45.186;9.792;2023-01-25T01:31:42;102400.00;;;4.63;100.00
51297;BME280;37380;45.186;9.792;2023-01-25T01:34:15;102289.69;;;4.24;100.00
51297;BME280;37380;45.186;9.792;2023-01-25T01:36:42;102128.25;;;3.20;100.00
51297;BME280;37380;45.186;9.792;2023-01-25T01:39:10;102274.56;;;4.19;100.00
51297;BME280;37380;45.186;9.792;2023-01-25T01:41:37;102419.72;;;5.02;100.00
51297;BME280;37380;45.186;9.792;2023-01-25T01:44:18;102422.69;;;4.96;100.00
51297;BME280;37380;45.186;9.792;2023-01-25T01:47:27;102291.25;;;4.02;100.00
51297;BME280;37380;45.186;9.792;2023-01-25T01:50:25;102350.16;;;4.35;100.00
51297;BME280;37380;45.186;9.792;2023-01-25T01:52:53;102404.31;;;4.83;100.00
51297;BME280;37380;45.186;9.792;2023-01-25T01:55:21;102398.47;;;4.96;100.00
51297;BME280;37380;45.186;9.792;2023-01-25T01:57:56;102241.06;;;4.10;100.00
51297;BME280;37380;45.186;9.792;2023-01-25T02:00:27;102330.19;;;4.24;100.00
51297;BME280;37380;45.186;9.792;2023-01-25T02:02:57;102339.91;;;4.26;100.00
51297;BME280;37380;45.186;9.792;2023-01-25T02:08:12;102406.13;;;4.84;100.00
51297;BME280;37380;45.186;9.792;2023-01-25T02:10:42;102339.56;;;4.52;100.00
51297;BME280;37380;45.186;9.792;2023-01-25T02:13:18;102405.84;;;4.81;100.00
51297;BME280;37380;45.186;9.792;2023-01-25T02:16:25;102395.88;;;4.75;100.00
51297;BME280;37380;45.186;9.792;2023-01-25T02:19:49;102404.94;;;4.70;100.00
51297;BME280;37380;45.186;9.792;2023-01-25T02:26:02;102146.53;;;3.13;100.00
51297;BME280;37380;45.186;9.792;2023-01-25T02:29:04;102252.75;;;3.66;100.00
51297;BME280;37380;45.186;9.792;2023-01-25T02:31:33;102273.09;;;3.81;100.00
51297;BME280;37380;45.186;9.792;2023-01-25T02:34:00;102141.53;;;3.14;100.00
51297;BME280;37380;45.186;9.792;2023-01-25T02:36:29;102163.00;;;3.34;100.00
51297;BME280;37380;45.186;9.792;2023-01-25T02:39:05;102199.16;;;3.73;100.00
51297;BME280;37380;45.186;9.792;2023-01-25T02:41:42;102312.25;;;4.46;100.00
51297;BME280;37380;45.186;9.792;2023-01-25T02:44:13;102196.94;;;3.78;100.00
51297;BME280;37380;45.186;9.792;2023-01-25T02:46:42;102386.56;;;4.78;100.00
51297;BME280;37380;45.186;9.792;2023-01-25T02:49:11;102369.72;;;4.72;100.00
51297;BME280;37380;45.186;9.792;2023-01-25T02:51:41;102071.38;;;3.00;100.00
51297;BME280;37380;45.186;9.792;2023-01-25T02:54:10;102027.03;;;2.85;100.00
51297;BME280;37380;45.186;9.792;2023-01-25T02:56:38;102296.22;;;4.40;100.00
51297;BME280;37380;45.186;9.792;2023-01-25T02:59:10;102306.56;;;4.40;100.00
51297;BME280;37380;45.186;9.792;2023-01-25T03:01:43;102315.34;;;4.62;100.00
51297;BME280;37380;45.186;9.792;2023-01-25T03:04:11;102348.72;;;5.00;100.00
51297;BME280;37380;45.186;9.792;2023-01-25T03:06:39;102200.31;;;4.18;100.00
51297;BME280;37380;45.186;9.792;2023-01-25T03:09:10;102095.59;;;3.41;100.00
51297;BME280;37380;45.186;9.792;2023-01-25T03:11:48;102332.44;;;4.81;100.00
51297;BME280;37380;45.186;9.792;2023-01-25T03:14:44;102303.06;;;4.49;100.00
51297;BME280;37380;45.186;9.792;2023-01-25T03:17:11;102209.50;;;4.04;100.00
51297;BME280;37380;45.186;9.792;2023-01-25T03:19:38;102018.81;;;2.89;100.00
51297;BME280;37380;45.186;9.792;2023-01-25T03:22:13;102292.31;;;4.45;100.00
51297;BME280;37380;45.186;9.792;2023-01-25T03:25:14;102336.84;;;4.71;100.00
51297;BME280;37380;45.186;9.792;2023-01-25T03:28:23;102244.56;;;4.11;100.00
51297;BME280;37380;45.186;9.792;2023-01-25T03:31:17;102338.13;;;4.87;100.00
51297;BME280;37380;45.186;9.792;2023-01-25T03:33:45;102346.94;;;4.89;100.00
51297;BME280;37380;45.186;9.792;2023-01-25T03:36:13;102100.91;;;3.73;100.00
51297;BME280;37380;45.186;9.792;2023-01-25T03:38:41;102320.00;;;4.76;100.00
51297;BME280;37380;45.186;9.792;2023-01-25T03:41:08;102159.06;;;3.89;100.00
51297;BME280;37380;45.186;9.792;2023-01-25T03:43:38;102107.38;;;3.68;100.00
51297;BME280;37380;45.186;9.792;2023-01-25T03:46:12;102289.84;;;4.57;100.00
51297;BME280;37380;45.186;9.792;2023-01-25T03:49:06;102213.41;;;4.19;100.00
51297;BME280;37380;45.186;9.792;2023-01-25T03:51:34;102087.47;;;3.47;100.00
51297;BME280;37380;45.186;9.792;2023-01-25T03:54:02;102196.81;;;4.27;100.00
51297;BME280;37380;45.186;9.792;2023-01-25T03:56:32;102215.59;;;4.15;100.00
51297;BME280;37380;45.186;9.792;2023-01-25T03:59:05;102321.53;;;4.85;100.00
51297;BME280;37380;45.186;9.792;2023-01-25T04:01:41;102308.09;;;4.79;100.00
51297;BME280;37380;45.186;9.792;2023-01-25T04:04:35;101984.31;;;2.78;100.00
51297;BME280;37380;45.186;9.792;2023-01-25T04:07:02;102277.97;;;4.48;100.00
51297;BME280;37380;45.186;9.792;2023-01-25T04:09:31;102315.59;;;4.65;100.00
51297;BME280;37380;45.186;9.792;2023-01-25T04:12:05;102314.44;;;4.72;100.00
51297;BME280;37380;45.186;9.792;2023-01-25T04:14:59;102314.56;;;4.73;100.00
51297;BME280;37380;45.186;9.792;2023-01-25T04:17:33;102252.06;;;4.38;100.00
51297;BME280;37380;45.186;9.792;2023-01-25T04:20:32;102315.56;;;4.86;100.00
51297;BME280;37380;45.186;9.792;2023-01-25T04:23:31;102305.50;;;4.89;100.00
51297;BME280;37380;45.186;9.792;2023-01-25T04:26:00;102330.59;;;4.80;100.00
51297;BME280;37380;45.186;9.792;2023-01-25T04:28:29;102089.91;;;3.35;100.00
51297;BME280;37380;45.186;9.792;2023-01-25T04:30:57;102317.41;;;4.76;100.00
51297;BME280;37380;45.186;9.792;2023-01-25T04:33:32;102198.91;;;3.91;100.00
51297;BME280;37380;45.186;9.792;2023-01-25T04:36:00;102013.16;;;3.03;100.00
51297;BME280;37380;45.186;9.792;2023-01-25T04:38:29;102323.50;;;4.67;100.00
51297;BME280;37380;45.186;9.792;2023-01-25T04:40:57;102264.91;;;4.37;100.00
51297;BME280;37380;45.186;9.792;2023-01-25T04:43:24;102154.94;;;3.80;100.00
51297;BME280;37380;45.186;9.792;2023-01-25T04:45:57;102022.47;;;3.11;100.00
51297;BME280;37380;45.186;9.792;2023-01-25T04:48:29;102234.59;;;4.15;100.00
51297;BME280;37380;45.186;9.792;2023-01-25T04:51:00;101941.81;;;2.64;100.00
51297;BME280;37380;45.186;9.792;2023-01-25T04:53:27;102290.63;;;4.56;100.00
51297;BME280;37380;45.186;9.792;2023-01-25T04:55:58;102164.22;;;3.68;100.00
51297;BME280;37380;45.186;9.792;2023-01-25T04:58:29;102147.56;;;3.65;100.00
51297;BME280;37380;45.186;9.792;2023-01-25T05:01:03;101887.97;;;2.38;100.00
51297;BME280;37380;45.186;9.792;2023-01-25T05:03:31;101901.94;;;2.40;100.00
51297;BME280;37380;45.186;9.792;2023-01-25T05:06:05;102109.19;;;3.59;100.00
51297;BME280;37380;45.186;9.792;2023-01-25T05:08:59;101912.13;;;2.49;100.00
51297;BME280;37380;45.186;9.792;2023-01-25T05:12:00;102012.00;;;3.00;100.00
51297;BME280;37380;45.186;9.792;2023-01-25T05:15:07;102081.13;;;3.33;100.00
51297;BME280;37380;45.186;9.792;2023-01-25T05:17:36;101869.13;;;2.19;100.00
51297;BME280;37380;45.186;9.792;2023-01-25T05:20:03;102054.63;;;3.15;100.00
51297;BME280;37380;45.186;9.792;2023-01-25T05:22:37;102152.72;;;3.65;100.00
51297;BME280;37380;45.186;9.792;2023-01-25T05:25:31;102130.59;;;3.37;100.00
51297;BME280;37380;45.186;9.792;2023-01-25T05:28:24;102140.69;;;3.45;100.00
51297;BME280;37380;45.186;9.792;2023-01-25T05:31:10;102303.56;;;4.35;100.00
51297;BME280;37380;45.186;9.792;2023-01-25T05:33:38;102159.19;;;3.80;100.00
51297;BME280;37380;45.186;9.792;2023-01-25T05:36:06;102320.38;;;4.30;100.00
51297;BME280;37380;45.186;9.792;2023-01-25T05:38:35;101886.13;;;2.07;100.00
51297;BME280;37380;45.186;9.792;2023-01-25T05:41:03;102262.56;;;4.19;100.00
51297;BME280;37380;45.186;9.792;2023-01-25T05:43:31;101879.03;;;2.04;100.00
51297;BME280;37380;45.186;9.792;2023-01-25T05:46:00;102163.31;;;3.47;100.00
51297;BME280;37380;45.186;9.792;2023-01-25T05:48:28;102120.50;;;3.30;100.00
51297;BME280;37380;45.186;9.792;2023-01-25T05:50:57;102261.22;;;4.04;100.00
51297;BME280;37380;45.186;9.792;2023-01-25T05:53:25;102132.00;;;3.34;100.00
51297;BME280;37380;45.186;9.792;2023-01-25T05:56:04;102044.72;;;2.80;100.00
51297;BME280;37380;45.186;9.792;2023-01-25T05:58:57;102106.25;;;3.15;100.00
51297;BME280;37380;45.186;9.792;2023-01-25T06:01:31;102283.00;;;4.16;100.00
51297;BME280;37380;45.186;9.792;2023-01-25T06:04:25;101846.00;;;1.61;100.00
51297;BME280;37380;45.186;9.792;2023-01-25T06:06:52;102274.56;;;4.19;100.00
51297;BME280;37380;45.186;9.792;2023-01-25T06:09:19;102125.81;;;3.32;100.00
51297;BME280;37380;45.186;9.792;2023-01-25T06:11:56;101908.28;;;2.15;100.00
51297;BME280;37380;45.186;9.792;2023-01-25T06:14:59;102310.44;;;4.35;100.00
51297;BME280;37380;45.186;9.792;2023-01-25T06:17:57;102143.69;;;3.70;100.00
51297;BME280;37380;45.186;9.792;2023-01-25T06:21:04;102299.69;;;4.50;100.00
51297;BME280;37380;45.186;9.792;2023-01-25T06:23:58;102146.63;;;3.54;100.00
51297;BME280;37380;45.186;9.792;2023-01-25T06:26:25;102264.09;;;4.48;100.00
51297;BME280;37380;45.186;9.792;2023-01-25T06:28:52;102269.56;;;4.51;100.00
51297;BME280;37380;45.186;9.792;2023-01-25T06:31:19;102009.66;;;3.03;100.00
51297;BME280;37380;45.186;9.792;2023-01-25T06:33:54;101945.56;;;2.47;100.00
51297;BME280;37380;45.186;9.792;2023-01-25T06:36:57;102084.97;;;3.28;100.00
51297;BME280;37380;45.186;9.792;2023-01-25T06:39:27;101895.75;;;2.48;100.00
51297;BME280;37380;45.186;9.792;2023-01-25T06:41:58;102111.00;;;3.70;100.00
51297;BME280;37380;45.186;9.792;2023-01-25T06:44:32;101913.19;;;2.51;100.00
51297;BME280;37380;45.186;9.792;2023-01-25T06:47:33;102167.09;;;3.92;100.00
51297;BME280;37380;45.186;9.792;2023-01-25T06:50:34;102265.41;;;4.32;100.00
51297;BME280;37380;45.186;9.792;2023-01-25T06:53:30;101935.75;;;2.54;100.00
51297;BME280;37380;45.186;9.792;2023-01-25T06:56:03;102244.81;;;4.44;100.00
51297;BME280;37380;45.186;9.792;2023-01-25T06:58:31;102250.91;;;4.55;100.00
51297;BME280;37380;45.186;9.792;2023-01-25T07:01:00;102146.91;;;3.98;100.00
51297;BME280;37380;45.186;9.792;2023-01-25T07:03:28;101996.75;;;3.03;100.00
51297;BME280;37380;45.186;9.792;2023-01-25T07:05:59;101936.03;;;2.67;100.00
51297;BME280;37380;45.186;9.792;2023-01-25T07:08:27;102253.31;;;4.74;100.00
51297;BME280;37380;45.186;9.792;2023-01-25T07:10:58;102215.97;;;4.50;100.00
51297;BME280;37380;45.186;9.792;2023-01-25T07:13:32;102037.97;;;3.62;100.00
51297;BME280;37380;45.186;9.792;2023-01-25T07:16:27;102136.84;;;4.11;100.00
51297;BME280;37380;45.186;9.792;2023-01-25T07:18:54;102104.53;;;3.85;100.00
51297;BME280;37380;45.186;9.792;2023-01-25T07:21:28;102244.03;;;4.66;100.00
51297;BME280;37380;45.186;9.792;2023-01-25T07:24:29;102078.56;;;3.84;100.00
51297;BME280;37380;45.186;9.792;2023-01-25T07:27:23;102208.69;;;4.66;100.00
51297;BME280;37380;45.186;9.792;2023-01-25T07:29:50;102255.72;;;5.03;100.00
51297;BME280;37380;45.186;9.792;2023-01-25T07:32:24;102113.31;;;4.08;100.00
51297;BME280;37380;45.186;9.792;2023-01-25T07:35:27;102097.41;;;3.93;100.00
51297;BME280;37380;45.186;9.792;2023-01-25T07:38:26;102281.63;;;5.03;100.00
51297;BME280;37380;45.186;9.792;2023-01-25T07:40:53;101951.06;;;3.12;100.00
51297;BME280;37380;45.186;9.792;2023-01-25T07:43:20;101937.22;;;3.22;100.00
51297;BME280;37380;45.186;9.792;2023-01-25T07:45:47;102135.63;;;4.48;100.00
51297;BME280;37380;45.186;9.792;2023-01-25T07:48:17;102134.97;;;4.51;100.00
51297;BME280;37380;45.186;9.792;2023-01-25T07:50:45;102145.88;;;4.37;100.00
51297;BME280;37380;45.186;9.792;2023-01-25T07:53:15;102237.94;;;4.75;100.00
51297;BME280;37380;45.186;9.792;2023-01-25T07:55:43;102285.00;;;5.02;100.00
51297;BME280;37380;45.186;9.792;2023-01-25T07:58:10;101906.13;;;3.10;100.00
51297;BME280;37380;45.186;9.792;2023-01-25T08:00:38;102161.09;;;4.54;100.00
51297;BME280;37380;45.186;9.792;2023-01-25T08:03:06;101974.50;;;3.66;100.00
51297;BME280;37380;45.186;9.792;2023-01-25T08:05:34;102140.63;;;4.57;100.00
51297;BME280;37380;45.186;9.792;2023-01-25T08:08:03;101962.03;;;3.30;100.00
51297;BME280;37380;45.186;9.792;2023-01-25T08:10:30;102083.66;;;4.25;100.00
51297;BME280;37380;45.186;9.792;2023-01-25T08:13:05;102076.00;;;4.26;100.00
51297;BME280;37380;45.186;9.792;2023-01-25T08:16:06;102265.03;;;5.11;100.00
51297;BME280;37380;45.186;9.792;2023-01-25T08:19:01;102106.06;;;4.14;100.00
51297;BME280;37380;45.186;9.792;2023-01-25T08:21:35;102193.66;;;4.62;100.00
51297;BME280;37380;45.186;9.792;2023-01-25T08:24:36;102172.59;;;4.58;100.00
51297;BME280;37380;45.186;9.792;2023-01-25T08:27:30;101903.41;;;3.18;100.00
51297;BME280;37380;45.186;9.792;2023-01-25T08:30:04;102215.19;;;5.04;100.00
51297;BME280;37380;45.186;9.792;2023-01-25T08:32:58;102147.75;;;4.60;100.00
51297;BME280;37380;45.186;9.792;2023-01-25T08:35:59;102082.47;;;4.21;100.00
51297;BME280;37380;45.186;9.792;2023-01-25T08:38:57;102244.53;;;5.14;100.00
51297;BME280;37380;45.186;9.792;2023-01-25T08:41:29;102247.38;;;5.17;100.00
51297;BME280;37380;45.186;9.792;2023-01-25T08:44:04;101875.38;;;3.23;100.00
51297;BME280;37380;45.186;9.792;2023-01-25T08:46:59;102135.34;;;4.88;100.00
51297;BME280;37380;45.186;9.792;2023-01-25T08:50:00;102086.44;;;4.48;100.00
51297;BME280;37380;45.186;9.792;2023-01-25T08:53:01;102140.97;;;4.72;100.00
51297;BME280;37380;45.186;9.792;2023-01-25T08:55:55;102200.06;;;4.98;100.00
51297;BME280;37380;45.186;9.792;2023-01-25T08:58:29;102131.28;;;4.69;100.00
51297;BME280;37380;45.186;9.792;2023-01-25T09:01:23;102032.56;;;4.54;100.00
51297;BME280;37380;45.186;9.792;2023-01-25T09:03:50;102184.53;;;5.64;100.00
51297;BME280;37380;45.186;9.792;2023-01-25T09:06:18;102196.94;;;5.56;100.00
51297;BME280;37380;45.186;9.792;2023-01-25T09:08:49;101968.41;;;4.18;100.00
51297;BME280;37380;45.186;9.792;2023-01-25T09:11:18;102233.34;;;5.80;100.00
51297;BME280;37380;45.186;9.792;2023-01-25T09:13:53;102242.69;;;5.78;100.00
51297;BME280;37380;45.186;9.792;2023-01-25T09:16:47;102159.59;;;5.76;100.00
51297;BME280;37380;45.186;9.792;2023-01-25T09:19:14;102238.31;;;6.32;100.00
51297;BME280;37380;45.186;9.792;2023-01-25T09:21:48;102225.47;;;5.90;100.00
51297;BME280;37380;45.186;9.792;2023-01-25T09:24:49;102182.28;;;5.57;100.00
51297;BME280;37380;45.186;9.792;2023-01-25T09:27:43;102001.81;;;4.69;100.00
51297;BME280;37380;45.186;9.792;2023-01-25T09:30:11;102060.97;;;5.19;100.00
51297;BME280;37380;45.186;9.792;2023-01-25T09:32:54;102234.75;;;6.08;100.00
51297;BME280;37380;45.186;9.792;2023-01-25T09:35:50;102214.09;;;6.10;100.00
51297;BME280;37380;45.186;9.792;2023-01-25T09:38:17;102079.28;;;5.10;100.00
51297;BME280;37380;45.186;9.792;2023-01-25T09:54:39;102157.09;;;5.78;100.00
51297;BME280;37380;45.186;9.792;2023-01-25T09:57:38;102219.63;;;6.72;100.00
51297;BME280;37380;45.186;9.792;2023-01-25T10:00:23;102175.53;;;6.15;100.00
51297;BME280;37380;45.186;9.792;2023-01-25T10:05:27;102216.25;;;6.61;100.00
51297;BME280;37380;45.186;9.792;2023-01-25T10:08:09;102216.91;;;6.58;100.00
51297;BME280;37380;45.186;9.792;2023-01-25T10:10:43;102173.28;;;6.31;100.00
51297;BME280;37380;45.186;9.792;2023-01-25T10:13:22;102067.34;;;5.80;100.00
51297;BME280;37380;45.186;9.792;2023-01-25T10:16:40;102188.66;;;6.40;100.00
51297;BME280;37380;45.186;9.792;2023-01-25T10:19:38;102200.19;;;6.43;100.00
51297;BME280;37380;45.186;9.792;2023-01-25T10:22:51;102042.56;;;5.83;100.00
51297;BME280;37380;45.186;9.792;2023-01-25T10:25:57;102144.19;;;6.58;100.00
51297;BME280;37380;45.186;9.792;2023-01-25T10:32:10;102172.75;;;6.94;100.00
51297;BME280;37380;45.186;9.792;2023-01-25T10:35:33;102167.50;;;7.17;100.00
51297;BME280;37380;45.186;9.792;2023-01-25T10:38:16;102168.78;;;7.47;100.00
51297;BME280;37380;45.186;9.792;2023-01-25T10:40:57;102164.63;;;7.38;100.00
51297;BME280;37380;45.186;9.792;2023-01-25T10:43:27;102157.38;;;7.45;100.00
51297;BME280;37380;45.186;9.792;2023-01-25T10:45:55;102096.88;;;7.23;100.00
51297;BME280;37380;45.186;9.792;2023-01-25T10:48:26;102149.38;;;7.67;100.00
51297;BME280;37380;45.186;9.792;2023-01-25T10:50:56;102103.63;;;7.21;100.00
51297;BME280;37380;45.186;9.792;2023-01-25T10:53:35;102150.19;;;7.91;100.00
51297;BME280;37380;45.186;9.792;2023-01-25T10:58:45;102018.88;;;7.23;100.00
51297;BME280;37380;45.186;9.792;2023-01-25T11:01:47;101954.97;;;7.52;100.00
51297;BME280;37380;45.186;9.792;2023-01-25T11:04:48;102057.59;;;7.95;100.00
51297;BME280;37380;45.186;9.792;2023-01-25T11:07:46;101984.41;;;8.04;100.00
51297;BME280;37380;45.186;9.792;2023-01-25T11:10:45;101995.00;;;7.93;100.00
51297;BME280;37380;45.186;9.792;2023-01-25T11:13:22;102124.22;;;8.98;100.00
51297;BME280;37380;45.186;9.792;2023-01-25T11:18:58;102105.97;;;8.98;100.00
51297;BME280;37380;45.186;9.792;2023-01-25T11:21:28;102099.75;;;8.96;100.00
51297;BME280;37380;45.186;9.792;2023-01-25T11:24:03;102101.81;;;8.60;100.00
51297;BME280;37380;45.186;9.792;2023-01-25T11:26:32;101960.06;;;7.63;100.00
51297;BME280;37380;45.186;9.792;2023-01-25T11:32:19;101871.03;;;6.89;100.00
51297;BME280;37380;45.186;9.792;2023-01-25T11:34:49;102065.94;;;8.29;100.00
51297;BME280;37380;45.186;9.792;2023-01-25T11:37:34;102074.66;;;8.70;100.00
51297;BME280;37380;45.186;9.792;2023-01-25T12:10:50;102010.38;;;9.69;100.00
51297;BME280;37380;45.186;9.792;2023-01-25T12:20:30;101990.56;;;9.28;100.00
51297;BME280;37380;45.186;9.792;2023-01-25T12:23:35;101821.88;;;8.27;100.00
51297;BME280;37380;45.186;9.792;2023-01-25T12:26:15;101935.81;;;9.00;100.00
51297;BME280;37380;45.186;9.792;2023-01-25T12:34:37;101977.31;;;8.82;100.00
51297;BME280;37380;45.186;9.792;2023-01-25T12:37:12;101758.72;;;7.46;100.00
51297;BME280;37380;45.186;9.792;2023-01-25T12:39:57;101828.38;;;7.92;100.00
51297;BME280;37380;45.186;9.792;2023-01-25T12:42:37;101955.34;;;8.37;100.00
51297;BME280;37380;45.186;9.792;2023-01-25T12:45:16;101950.94;;;8.36;100.00
51297;BME280;37380;45.186;9.792;2023-01-25T12:47:57;101548.53;;;6.17;100.00
51297;BME280;37380;45.186;9.792;2023-01-25T12:50:54;101742.91;;;7.43;100.00
51297;BME280;37380;45.186;9.792;2023-01-25T12:53:56;101781.88;;;7.83;100.00
51297;BME280;37380;45.186;9.792;2023-01-25T13:02:33;101937.69;;;8.60;100.00
51297;BME280;37380;45.186;9.792;2023-01-25T13:05:28;101931.59;;;8.59;100.00
51297;BME280;37380;45.186;9.792;2023-01-25T13:08:05;101925.00;;;8.51;100.00
51297;BME280;37380;45.186;9.792;2023-01-25T13:10:52;101829.28;;;7.92;100.00
51297;BME280;37380;45.186;9.792;2023-01-25T13:13:27;101819.38;;;7.87;100.00
51297;BME280;37380;45.186;9.792;2023-01-25T13:18:55;101930.56;;;8.57;100.00
51297;BME280;37380;45.186;9.792;2023-01-25T13:30:10;101817.81;;;8.32;100.00
51297;BME280;37380;45.186;9.792;2023-01-25T13:35:31;101836.16;;;8.47;100.00
51297;BME280;37380;45.186;9.792;2023-01-25T13:40:31;101911.66;;;9.03;100.00
51297;BME280;37380;45.186;9.792;2023-01-25T13:43:04;101587.50;;;7.24;100.00
51297;BME280;37380;45.186;9.792;2023-01-25T13:45:40;101656.94;;;7.68;100.00
51297;BME280;37380;45.186;9.792;2023-01-25T13:48:48;101809.38;;;8.49;100.00
51297;BME280;37380;45.186;9.792;2023-01-25T13:51:52;101808.81;;;8.40;100.00
51297;BME280;37380;45.186;9.792;2023-01-25T13:54:48;101771.22;;;8.22;100.00
51297;BME280;37380;45.186;9.792;2023-01-25T13:57:30;101781.06;;;8.12;100.00
51297;BME280;37380;45.186;9.792;2023-01-25T14:00:31;101762.66;;;8.09;100.00
51297;BME280;37380;45.186;9.792;2023-01-25T14:03:28;101847.13;;;8.56;100.00
51297;BME280;37380;45.186;9.792;2023-01-25T14:05:57;101747.69;;;8.20;100.00
51297;BME280;37380;45.186;9.792;2023-01-25T14:08:29;101616.38;;;7.57;100.00
51297;BME280;37380;45.186;9.792;2023-01-25T14:10:57;101605.78;;;7.54;100.00
51297;BME280;37380;45.186;9.792;2023-01-25T14:13:31;101732.13;;;8.35;100.00
51297;BME280;37380;45.186;9.792;2023-01-25T14:16:18;101763.44;;;8.65;100.00
51297;BME280;37380;45.186;9.792;2023-01-25T14:18:45;101805.47;;;9.00;100.00
51297;BME280;37380;45.186;9.792;2023-01-25T14:23:44;101581.53;;;7.83;100.00
51297;BME280;37380;45.186;9.792;2023-01-25T14:26:16;101880.00;;;9.56;100.00
51297;BME280;37380;45.186;9.792;2023-01-25T14:28:56;101804.41;;;8.67;100.00
51297;BME280;37380;45.186;9.792;2023-01-25T14:32:00;101793.81;;;8.64;100.00
51297;BME280;37380;45.186;9.792;2023-01-25T14:34:54;101750.22;;;8.33;100.00
51297;BME280;37380;45.186;9.792;2023-01-25T14:37:21;101476.59;;;6.69;100.00
51297;BME280;37380;45.186;9.792;2023-01-25T14:39:49;101801.31;;;8.45;100.00
51297;BME280;37380;45.186;9.792;2023-01-25T14:42:18;101856.13;;;8.61;100.00
51297;BME280;37380;45.186;9.792;2023-01-25T14:44:46;101701.50;;;7.46;100.00
51297;BME280;37380;45.186;9.792;2023-01-25T14:47:30;101803.91;;;8.31;100.00
51297;BME280;37380;45.186;9.792;2023-01-25T14:50:45;101808.19;;;8.16;100.00
51297;BME280;37380;45.186;9.792;2023-01-25T14:53:42;101745.13;;;7.51;100.00
51297;BME280;37380;45.186;9.792;2023-01-25T14:59:26;101743.06;;;7.73;100.00
51297;BME280;37380;45.186;9.792;2023-01-25T15:01:59;101730.47;;;7.66;100.00
51297;BME280;37380;45.186;9.792;2023-01-25T15:04:28;101623.72;;;6.95;100.00
51297;BME280;37380;45.186;9.792;2023-01-25T15:06:56;101883.97;;;8.62;100.00
51297;BME280;37380;45.186;9.792;2023-01-25T15:09:39;101566.84;;;6.99;100.00
51297;BME280;37380;45.186;9.792;2023-01-25T15:15:17;101682.56;;;7.21;100.00
51297;BME280;37380;45.186;9.792;2023-01-25T15:18:41;101667.75;;;7.33;100.00
51297;BME280;37380;45.186;9.792;2023-01-25T15:21:10;101735.88;;;7.69;100.00
51297;BME280;37380;45.186;9.792;2023-01-25T15:23:39;101871.88;;;8.21;100.00
51297;BME280;37380;45.186;9.792;2023-01-25T15:26:27;101713.53;;;7.18;100.00
51297;BME280;37380;45.186;9.792;2023-01-25T15:29:11;101798.31;;;7.56;100.00
51297;BME280;37380;45.186;9.792;2023-01-25T15:32:19;101703.16;;;6.91;100.00
51297;BME280;37380;45.186;9.792;2023-01-25T15:34:53;101502.56;;;5.76;100.00
51297;BME280;37380;45.186;9.792;2023-01-25T15:37:48;101600.88;;;6.23;100.00
51297;BME280;37380;45.186;9.792;2023-01-25T15:40:15;101787.22;;;7.18;100.00
51297;BME280;37380;45.186;9.792;2023-01-25T15:42:43;101768.13;;;7.18;100.00
51297;BME280;37380;45.186;9.792;2023-01-25T15:45:16;101845.72;;;7.65;100.00
51297;BME280;37380;45.186;9.792;2023-01-25T15:48:16;101532.50;;;5.71;100.00
51297;BME280;37380;45.186;9.792;2023-01-25T15:50:50;101789.81;;;7.18;100.00